Time;durP1;ratioP1;P1;durP2;ratioP2;P2;SDS_P1;SDS_P2;PMS_P1;PMS_P2;Temp;Humidity;BMP_temperature;BMP_pressure;BME280_temperature;BME280_humidity;BME280_pressure;Samples;Min_cycle;Max_cycle;Signal;HPM_P1;HPM_P2
2022/01/12 00:02:26;;;;;;;9.40;2.10;;;27.30;64.00;;;;;;5075446;28;20171;-77
2022/01/12 00:04:54;;;;;;;9.27;1.93;;;27.70;61.40;;;;;;5073222;28;20175;-77
2022/01/12 00:07:21;;;;;;;7.03;2.00;;;27.90;60.80;;;;;;5075546;28;20205;-77
2022/01/12 00:09:48;;;;;;;7.43;1.93;;;28.20;60.10;;;;;;5072468;28;20202;-78
2022/01/12 00:12:16;;;;;;;5.97;1.80;;;28.30;60.30;;;;;;5074791;28;20255;-78
2022/01/12 00:14:44;;;;;;;9.40;2.00;;;28.30;58.90;;;;;;5074944;28;20221;-78
2022/01/12 00:17:11;;;;;;;7.97;2.03;;;28.40;59.10;;;;;;5075687;28;20203;-79
2022/01/12 00:19:39;;;;;;;7.67;2.17;;;28.30;59.00;;;;;;5074480;28;20549;-79
2022/01/12 00:22:07;;;;;;;4.97;1.53;;;28.40;57.60;;;;;;5072998;28;20179;-76
2022/01/12 00:25:03;;;;;;;9.23;2.10;;;28.30;57.00;;;;;;5072089;28;20549;-76
2022/01/12 00:33:15;;;;;;;7.10;1.97;;;28.30;58.40;;;;;;5076477;28;20701;-76
2022/01/12 00:35:46;;;;;;;3.40;1.43;;;27.80;57.70;;;;;;5075045;28;20237;-79
2022/01/12 00:38:15;;;;;;;6.87;1.70;;;27.50;59.70;;;;;;5072607;28;20219;-76
2022/01/12 00:40:47;;;;;;;4.73;1.40;;;27.50;59.40;;;;;;5071124;28;20182;-82
2022/01/12 00:43:16;;;;;;;8.07;1.67;;;27.20;59.00;;;;;;5070734;28;20199;-77
2022/01/12 00:45:47;;;;;;;4.90;1.63;;;27.10;60.30;;;;;;5071580;28;20191;-78
2022/01/12 00:48:16;;;;;;;3.93;1.20;;;27.10;60.80;;;;;;5072765;28;20585;-80
2022/01/12 00:50:47;;;;;;;4.70;1.50;;;27.30;61.10;;;;;;5072247;28;20179;-79
2022/01/12 00:53:16;;;;;;;3.23;1.20;;;27.50;58.80;;;;;;5069398;28;20198;-77
2022/01/12 00:55:43;;;;;;;4.73;1.40;;;27.60;59.40;;;;;;5071883;28;20215;-81
2022/01/12 00:58:11;;;;;;;3.47;1.20;;;27.60;60.20;;;;;;5073026;28;20633;-83
2022/01/12 01:00:39;;;;;;;6.30;1.87;;;27.80;59.90;;;;;;5072564;28;20179;-78
2022/01/12 01:03:08;;;;;;;3.93;1.50;;;28.00;59.10;;;;;;5073292;28;20175;-83
2022/01/12 01:05:35;;;;;;;6.23;1.87;;;27.80;59.50;;;;;;5073044;28;20184;-81
2022/01/12 01:08:03;;;;;;;6.07;1.87;;;27.80;58.80;;;;;;5072980;28;20178;-79
2022/01/12 01:10:46;;;;;;;3.77;1.00;;;27.60;60.20;;;;;;5072886;28;20653;-81
2022/01/12 01:13:18;;;;;;;4.33;1.27;;;27.80;60.40;;;;;;5067574;28;20797;-85
2022/01/12 01:26:39;;;;;;;2.87;0.90;;;28.60;57.70;;;;;;5069059;28;20178;-78
2022/01/12 01:29:07;;;;;;;5.63;1.20;;;28.80;56.40;;;;;;5071622;28;20545;-78
2022/01/12 01:31:35;;;;;;;5.57;1.23;;;28.90;56.90;;;;;;5068334;28;20182;-75
2022/01/12 01:34:09;;;;;;;5.53;1.47;;;29.10;56.00;;;;;;5072116;28;20176;-77
2022/01/12 01:36:47;;;;;;;4.33;1.10;;;29.30;56.00;;;;;;5072421;28;20218;-83
2022/01/12 01:39:19;;;;;;;2.63;1.20;;;29.30;55.30;;;;;;5066312;28;20249;-79
2022/01/12 01:41:57;;;;;;;4.47;1.20;;;29.20;55.30;;;;;;5070455;28;20538;-81
2022/01/12 01:55:11;;;;;;;4.20;1.03;;;29.50;54.60;;;;;;5070260;28;20740;-83
2022/01/12 01:57:39;;;;;;;4.33;1.10;;;29.50;52.90;;;;;;5073716;28;20176;-84
2022/01/12 02:00:10;;;;;;;3.60;1.33;;;28.80;54.50;;;;;;5071621;28;20672;-83
2022/01/12 02:02:38;;;;;;;3.23;1.27;;;28.10;56.60;;;;;;5072390;28;20179;-83
2022/01/12 02:05:05;;;;;;;4.33;1.40;;;28.50;57.10;;;;;;5078184;28;20194;-81
2022/01/12 02:07:34;;;;;;;4.40;1.37;;;29.00;55.30;;;;;;5080238;28;20180;-78
2022/01/12 02:10:02;;;;;;;4.57;1.20;;;28.50;55.40;;;;;;5063411;28;20175;-78
2022/01/12 02:12:30;;;;;;;1.93;1.03;;;28.40;56.80;;;;;;5069692;28;20215;-79
2022/01/12 02:15:01;;;;;;;3.27;1.00;;;28.30;56.30;;;;;;5072455;28;20211;-80
2022/01/12 02:17:38;;;;;;;3.23;1.20;;;28.30;57.20;;;;;;5074579;28;20182;-78
2022/01/12 02:20:31;;;;;;;3.47;1.20;;;28.30;57.20;;;;;;5074156;28;20202;-81
2022/01/12 02:39:49;;;;;;;4.10;1.20;;;28.20;61.00;;;;;;5075584;28;20202;-80
2022/01/12 02:39:55;;;;;;;4.07;1.10;;;28.40;60.10;;;;;;5078215;28;20211;-78
2022/01/12 02:42:25;;;;;;;1.87;0.97;;;28.40;60.00;;;;;;5074891;28;20179;-77
2022/01/12 02:50:43;;;;;;;2.97;0.90;;;29.60;57.90;;;;;;5071574;28;20197;-79
2022/01/12 02:55:57;;;;;;;2.23;1.20;;;28.50;60.00;;;;;;5074906;28;20660;-81
2022/01/12 02:58:24;;;;;;;3.63;1.10;;;28.40;61.10;;;;;;5075962;28;20610;-79
2022/01/12 03:03:32;;;;;;;2.30;1.00;;;28.00;61.20;;;;;;5073956;28;20250;-79
2022/01/12 03:06:03;;;;;;;4.63;1.43;;;27.90;61.70;;;;;;5071292;28;20190;-80
2022/01/12 03:08:37;;;;;;;5.90;1.50;;;27.60;61.70;;;;;;5077004;28;20187;-80
2022/01/12 03:11:13;;;;;;;3.03;0.87;;;27.80;62.20;;;;;;5076048;28;20252;-81
2022/01/12 03:13:46;;;;;;;9.10;1.30;;;27.90;61.30;;;;;;5077146;28;20637;-82
2022/01/12 03:16:18;;;;;;;2.30;1.10;;;28.10;61.10;;;;;;5071594;28;20206;-80
2022/01/12 03:18:49;;;;;;;6.07;1.20;;;27.90;61.70;;;;;;5073344;28;20226;-77
2022/01/12 03:21:20;;;;;;;5.83;1.77;;;28.30;61.50;;;;;;5070916;28;20223;-83
2022/01/12 03:23:48;;;;;;;3.53;1.13;;;28.30;61.60;;;;;;5075378;28;20604;-77
2022/01/12 03:26:15;;;;;;;4.63;1.23;;;28.30;61.50;;;;;;5074439;28;20522;-79
2022/01/12 03:28:53;;;;;;;3.00;1.07;;;28.40;61.60;;;;;;5077092;28;20555;-75
2022/01/12 03:31:24;;;;;;;4.17;0.80;;;28.60;60.50;;;;;;5071364;28;20187;-82
2022/01/12 03:33:55;;;;;;;4.73;0.90;;;28.20;61.80;;;;;;5077594;28;20257;-80
2022/01/12 03:36:28;;;;;;;6.07;1.10;;;28.60;61.30;;;;;;5071153;28;20215;-73
2022/01/12 03:39:17;;;;;;;3.30;0.97;;;28.80;60.20;;;;;;5073648;28;20230;-77
2022/01/12 03:41:45;;;;;;;4.77;0.90;;;28.30;61.50;;;;;;5074996;28;20325;-82
2022/01/12 03:44:13;;;;;;;5.77;1.40;;;28.30;61.20;;;;;;5073842;28;20270;-80
2022/01/12 03:46:47;;;;;;;3.10;1.10;;;28.20;62.00;;;;;;5070578;28;20187;-87
2022/01/12 03:49:16;;;;;;;2.40;1.03;;;27.80;63.10;;;;;;5069072;28;20180;-82
2022/01/12 03:51:44;;;;;;;3.20;1.00;;;27.60;63.20;;;;;;5071463;28;20265;-79
2022/01/12 03:54:12;;;;;;;4.50;1.10;;;27.60;63.30;;;;;;5068641;28;20544;-78
2022/01/12 03:56:39;;;;;;;3.67;1.13;;;27.70;63.70;;;;;;5070269;28;20210;-78
2022/01/12 03:59:07;;;;;;;5.73;1.10;;;27.30;64.70;;;;;;5068651;28;20237;-81
2022/01/12 04:01:35;;;;;;;3.27;1.13;;;27.30;64.70;;;;;;5071344;28;20167;-81
2022/01/12 04:04:07;;;;;;;4.67;1.20;;;27.40;64.70;;;;;;5071803;28;20195;-78
2022/01/12 04:09:20;;;;;;;4.17;1.33;;;27.30;64.60;;;;;;5069747;28;20190;-80
2022/01/12 04:11:47;;;;;;;3.57;1.07;;;27.20;64.00;;;;;;5069255;28;20242;-79
2022/01/12 04:14:15;;;;;;;7.00;1.20;;;27.10;64.70;;;;;;5071902;28;20175;-84
2022/01/12 04:16:42;;;;;;;7.50;1.40;;;27.20;64.40;;;;;;5069398;28;20184;-85
2022/01/12 04:19:09;;;;;;;4.00;1.20;;;27.30;64.00;;;;;;5072390;28;20195;-83
2022/01/12 04:21:47;;;;;;;3.57;1.17;;;27.30;63.40;;;;;;5072424;28;20179;-83
2022/01/12 04:24:22;;;;;;;5.80;1.23;;;27.00;63.90;;;;;;5068701;28;20191;-85
2022/01/12 04:27:02;;;;;;;4.67;1.13;;;27.00;64.30;;;;;;5069148;28;20193;-83
2022/01/12 04:29:30;;;;;;;4.20;1.00;;;27.10;63.90;;;;;;5073033;28;20221;-82
2022/01/12 04:31:57;;;;;;;6.10;1.10;;;26.90;64.00;;;;;;5073561;28;20179;-81
2022/01/12 04:34:28;;;;;;;4.63;0.97;;;26.60;64.80;;;;;;5072754;28;20210;-83
2022/01/12 04:36:59;;;;;;;5.80;1.00;;;26.50;65.10;;;;;;5072532;28;20189;-85
2022/01/12 04:39:28;;;;;;;3.00;0.83;;;26.30;65.50;;;;;;5070333;28;20195;-86
2022/01/12 04:41:56;;;;;;;4.80;1.03;;;26.30;66.20;;;;;;5073509;28;20579;-80
2022/01/12 04:44:27;;;;;;;5.87;1.20;;;26.20;66.70;;;;;;5074059;28;20202;-86
2022/01/12 04:47:06;;;;;;;3.10;1.20;;;26.00;67.00;;;;;;5073381;28;20206;-84
2022/01/12 04:52:18;;;;;;;2.57;1.00;;;25.80;68.60;;;;;;5072375;28;20580;-84
2022/01/12 04:54:46;;;;;;;5.17;1.10;;;25.60;69.50;;;;;;5070245;28;20610;-86
2022/01/12 04:57:14;;;;;;;3.17;1.10;;;25.50;69.80;;;;;;5072294;28;20232;-84
2022/01/12 04:59:57;;;;;;;2.97;0.90;;;25.40;70.80;;;;;;5073437;28;20179;-81
2022/01/12 05:08:12;;;;;;;7.37;1.53;;;25.00;72.00;;;;;;5076324;28;20221;-75
2022/01/12 05:13:31;;;;;;;3.77;1.20;;;24.80;73.80;;;;;;5083510;28;20229;-85
2022/01/12 05:16:09;;;;;;;5.77;1.40;;;24.80;74.50;;;;;;5073047;28;20210;-85
2022/01/12 05:18:47;;;;;;;6.57;1.47;;;24.80;75.20;;;;;;5071918;28;20185;-81
2022/01/12 05:21:19;;;;;;;6.30;1.20;;;24.80;75.30;;;;;;5073461;28;20183;-81
2022/01/12 05:23:48;;;;;;;5.53;1.33;;;24.80;74.60;;;;;;5067037;28;20171;-81
2022/01/12 05:26:16;;;;;;;4.87;1.03;;;24.70;73.80;;;;;;5072524;28;20828;-83
2022/01/12 05:28:50;;;;;;;3.33;1.00;;;24.50;74.30;;;;;;5072373;28;20221;-81
2022/01/12 05:31:17;;;;;;;4.07;1.20;;;24.50;74.40;;;;;;5070718;28;20175;-79
2022/01/12 05:33:48;;;;;;;4.03;1.10;;;24.50;74.50;;;;;;5069537;28;20171;-79
2022/01/12 05:36:17;;;;;;;3.13;1.10;;;24.50;75.20;;;;;;5071557;28;20233;-80
2022/01/12 05:38:45;;;;;;;6.00;1.30;;;24.50;76.00;;;;;;5070985;28;20214;-78
2022/01/12 05:41:13;;;;;;;3.37;1.00;;;24.50;76.40;;;;;;5071424;28;20179;-80
2022/01/12 05:43:42;;;;;;;4.80;1.00;;;24.30;75.10;;;;;;5067935;28;20183;-78
2022/01/12 05:46:12;;;;;;;5.37;0.90;;;24.20;75.60;;;;;;5066673;28;20662;-79
2022/01/12 05:51:30;;;;;;;3.57;1.40;;;23.70;79.40;;;;;;5073767;28;20214;-79
2022/01/12 05:53:57;;;;;;;4.77;1.00;;;23.40;79.40;;;;;;5074176;28;21355;-80
2022/01/12 05:56:25;;;;;;;8.00;1.10;;;23.30;81.70;;;;;;5074725;28;20206;-76
2022/01/12 05:58:53;;;;;;;4.93;1.20;;;23.30;80.20;;;;;;5074619;28;20222;-75
2022/01/12 06:01:21;;;;;;;5.97;1.50;;;23.20;80.60;;;;;;5071539;28;20547;-78
2022/01/12 06:03:53;;;;;;;7.57;0.90;;;23.20;79.20;;;;;;5074200;28;20692;-78
2022/01/12 06:06:22;;;;;;;3.00;1.10;;;23.20;77.10;;;;;;5076101;28;20244;-79
2022/01/12 06:08:50;;;;;;;5.03;1.20;;;23.00;77.00;;;;;;5071012;28;20218;-76
2022/01/12 06:11:17;;;;;;;6.50;1.20;;;22.90;77.60;;;;;;5075179;28;20180;-79
2022/01/12 06:13:45;;;;;;;5.33;1.23;;;22.80;79.20;;;;;;5069266;28;20703;-79
2022/01/12 06:16:12;;;;;;;8.13;1.30;;;22.60;82.10;;;;;;5072465;28;20662;-81
2022/01/12 06:18:40;;;;;;;8.40;1.30;;;22.60;82.80;;;;;;5072874;28;20180;-78
2022/01/12 06:21:07;;;;;;;6.27;1.30;;;22.60;82.50;;;;;;5074218;28;20194;-76
2022/01/12 06:23:34;;;;;;;3.93;1.20;;;22.50;83.00;;;;;;5076562;28;20190;-77
2022/01/12 06:26:02;;;;;;;11.20;1.60;;;22.60;83.10;;;;;;5076066;28;20176;-82
2022/01/12 06:33:54;;;;;;;4.00;1.10;;;22.40;82.30;;;;;;5070575;28;20261;-79
2022/01/12 06:36:22;;;;;;;5.20;1.13;;;22.40;82.20;;;;;;5078142;28;20677;-76
2022/01/12 06:38:50;;;;;;;6.90;1.30;;;22.30;83.30;;;;;;5078122;28;20273;-79
2022/01/12 06:41:19;;;;;;;4.77;1.17;;;22.30;83.40;;;;;;5077814;28;20243;-79
2022/01/12 06:43:47;;;;;;;4.10;1.27;;;22.30;85.00;;;;;;5078958;28;20202;-78
2022/01/12 06:46:17;;;;;;;4.53;1.60;;;22.10;84.40;;;;;;5083466;28;20184;-77
2022/01/12 06:48:45;;;;;;;3.27;1.17;;;22.00;85.20;;;;;;5076277;28;20274;-79
2022/01/12 06:51:13;;;;;;;6.37;1.77;;;21.80;85.50;;;;;;5073675;28;20720;-77
2022/01/12 06:53:40;;;;;;;6.43;1.53;;;21.80;85.90;;;;;;5073106;28;20183;-80
2022/01/12 06:56:09;;;;;;;5.50;1.93;;;21.80;87.20;;;;;;5074903;28;20258;-77
2022/01/12 06:58:39;;;;;;;7.33;1.80;;;21.80;86.20;;;;;;5073730;28;20212;-77
2022/01/12 07:01:07;;;;;;;7.20;2.00;;;22.00;86.60;;;;;;5072567;28;20211;-78
2022/01/12 07:03:34;;;;;;;6.07;1.77;;;22.00;86.40;;;;;;5074154;28;20560;-77
2022/01/12 07:06:02;;;;;;;6.47;1.40;;;22.20;85.60;;;;;;5072969;28;20541;-80
2022/01/12 07:08:29;;;;;;;10.47;1.80;;;22.30;84.50;;;;;;5074657;28;20229;-79
2022/01/12 07:10:57;;;;;;;10.17;2.00;;;22.30;84.80;;;;;;5072310;28;20187;-81
2022/01/12 07:13:24;;;;;;;6.47;1.63;;;22.40;84.80;;;;;;5074435;28;20647;-79
2022/01/12 07:15:51;;;;;;;6.43;1.43;;;22.40;84.50;;;;;;5073530;28;20215;-75
2022/01/12 07:18:21;;;;;;;6.57;1.90;;;22.40;81.70;;;;;;5068533;28;20176;-76
2022/01/12 07:20:49;;;;;;;4.20;1.30;;;22.40;83.20;;;;;;5072886;28;20191;-76
2022/01/12 07:23:16;;;;;;;5.87;1.50;;;22.30;81.30;;;;;;5073601;28;20206;-77
2022/01/12 07:25:44;;;;;;;7.53;1.57;;;22.30;81.50;;;;;;5073510;28;20191;-78
2022/01/12 07:28:11;;;;;;;6.47;1.63;;;22.30;81.30;;;;;;5073857;28;20209;-76
2022/01/12 07:30:39;;;;;;;4.27;1.37;;;22.30;81.20;;;;;;5073906;28;20202;-79
2022/01/12 07:33:06;;;;;;;5.93;1.13;;;22.30;80.40;;;;;;5073901;28;20222;-78
2022/01/12 07:35:34;;;;;;;5.17;1.37;;;22.40;81.70;;;;;;5073156;28;20250;-82
2022/01/12 07:38:01;;;;;;;6.87;1.70;;;22.30;81.80;;;;;;5071907;28;20268;-76
2022/01/12 07:40:29;;;;;;;3.80;1.40;;;22.50;82.30;;;;;;5071906;28;20278;-77
2022/01/12 07:42:57;;;;;;;3.10;1.10;;;22.40;82.50;;;;;;5071588;28;20191;-76
2022/01/12 07:45:25;;;;;;;3.43;1.10;;;22.50;83.00;;;;;;5070934;28;20187;-79
2022/01/12 07:47:52;;;;;;;3.73;1.57;;;22.40;83.80;;;;;;5072555;28;20183;-78
2022/01/12 07:50:19;;;;;;;4.10;1.60;;;22.30;84.80;;;;;;5071347;28;20186;-77
2022/01/12 07:52:47;;;;;;;4.23;1.20;;;22.20;86.00;;;;;;5071408;28;20531;-76
2022/01/12 07:55:14;;;;;;;4.70;1.23;;;22.00;87.20;;;;;;5073038;28;20203;-76
2022/01/12 07:57:43;;;;;;;3.53;1.47;;;21.90;88.40;;;;;;5073185;28;20187;-76
2022/01/12 08:00:10;;;;;;;4.47;1.70;;;21.80;89.10;;;;;;5072910;28;20202;-76
2022/01/12 08:02:38;;;;;;;5.70;1.80;;;21.80;89.80;;;;;;5072874;28;20586;-75
2022/01/12 08:05:05;;;;;;;5.03;1.67;;;21.80;90.10;;;;;;5069517;28;20186;-75
2022/01/12 08:07:36;;;;;;;7.17;1.73;;;21.70;90.40;;;;;;5071100;28;20186;-75
2022/01/12 08:10:05;;;;;;;6.67;1.80;;;21.80;90.30;;;;;;5072884;28;20258;-76
2022/01/12 08:12:33;;;;;;;1.67;1.00;;;21.80;90.70;;;;;;5073625;28;20183;-77
2022/01/12 08:15:00;;;;;;;6.50;1.40;;;21.80;90.30;;;;;;5070821;28;20245;-77
2022/01/12 08:17:28;;;;;;;6.13;2.20;;;21.70;90.60;;;;;;5076295;28;20267;-76
2022/01/12 08:19:57;;;;;;;2.80;1.30;;;21.80;90.90;;;;;;5076655;28;20278;-77
2022/01/12 08:22:24;;;;;;;5.27;1.70;;;21.90;91.00;;;;;;5073722;28;20176;-77
2022/01/12 08:24:52;;;;;;;4.30;1.30;;;21.90;91.20;;;;;;5072818;28;20266;-76
2022/01/12 08:27:19;;;;;;;4.87;1.60;;;22.00;91.00;;;;;;5072726;28;20179;-77
2022/01/12 08:29:49;;;;;;;7.07;1.63;;;21.90;89.80;;;;;;5071831;28;20171;-77
2022/01/12 08:32:17;;;;;;;4.43;1.27;;;21.90;89.90;;;;;;5064795;28;20637;-78
2022/01/12 08:34:44;;;;;;;3.80;1.47;;;21.80;89.80;;;;;;5072077;28;20287;-78
2022/01/12 08:37:12;;;;;;;6.60;1.60;;;21.80;89.70;;;;;;5068358;28;20227;-78
2022/01/12 08:39:39;;;;;;;5.17;1.60;;;21.80;90.10;;;;;;5070678;28;20239;-77
2022/01/12 08:42:09;;;;;;;6.90;1.73;;;21.80;89.80;;;;;;5071923;28;20211;-78
2022/01/12 08:44:37;;;;;;;5.10;1.67;;;21.80;90.30;;;;;;5071942;28;20183;-77
2022/01/12 08:47:05;;;;;;;3.93;1.97;;;21.90;90.30;;;;;;5071191;28;20193;-78
2022/01/12 08:49:32;;;;;;;6.43;1.67;;;21.90;91.00;;;;;;5070117;28;20198;-78
2022/01/12 08:52:00;;;;;;;7.23;1.70;;;21.80;90.80;;;;;;5068986;28;20179;-77
2022/01/12 08:54:27;;;;;;;6.00;2.23;;;21.90;91.50;;;;;;5071073;28;20184;-78
2022/01/12 08:56:54;;;;;;;3.50;1.67;;;21.80;91.40;;;;;;5070999;28;20256;-76
2022/01/12 08:59:22;;;;;;;5.80;1.67;;;21.80;91.40;;;;;;5070361;28;20548;-76
2022/01/12 09:01:50;;;;;;;8.83;2.20;;;21.80;90.90;;;;;;5070108;28;20180;-73
2022/01/12 09:04:18;;;;;;;16.17;3.80;;;21.80;91.00;;;;;;5070072;28;20569;-75
2022/01/12 09:06:45;;;;;;;10.70;3.20;;;21.80;92.10;;;;;;5070568;28;20190;-74
2022/01/12 09:09:13;;;;;;;10.80;3.13;;;21.70;92.70;;;;;;5070019;28;20616;-79
2022/01/12 09:11:40;;;;;;;10.30;2.70;;;21.70;93.10;;;;;;5071871;28;20182;-75
2022/01/12 09:14:07;;;;;;;6.67;2.47;;;21.60;92.90;;;;;;5071906;28;20484;-76
2022/01/12 09:16:35;;;;;;;9.80;2.97;;;21.50;92.70;;;;;;5070790;28;20215;-75
2022/01/12 09:19:03;;;;;;;3.97;1.77;;;21.40;92.70;;;;;;5069258;28;20594;-75
2022/01/12 09:21:30;;;;;;;7.63;2.20;;;21.30;92.40;;;;;;5067956;28;20186;-75
2022/01/12 09:23:58;;;;;;;3.17;1.50;;;21.20;92.70;;;;;;5069285;28;20176;-75
2022/01/12 09:26:25;;;;;;;5.40;1.77;;;21.00;92.20;;;;;;5070830;28;20254;-75
2022/01/12 09:28:52;;;;;;;3.93;1.60;;;21.00;92.40;;;;;;5070696;28;20314;-75
2022/01/12 09:31:20;;;;;;;4.07;1.60;;;20.90;92.70;;;;;;5068075;28;20533;-76
2022/01/12 09:33:49;;;;;;;3.10;1.40;;;21.00;93.00;;;;;;5071838;28;20183;-76
2022/01/12 09:36:17;;;;;;;3.43;1.33;;;20.90;92.90;;;;;;5071324;28;20207;-76
2022/01/12 09:38:44;;;;;;;2.83;1.10;;;20.80;92.70;;;;;;4970933;28;2904352;-78
2022/01/12 09:41:11;;;;;;;2.53;1.20;;;20.80;92.70;;;;;;5074430;28;20431;-78
2022/01/12 09:43:41;;;;;;;4.43;1.50;;;20.90;93.40;;;;;;5072554;28;20179;-77
2022/01/12 09:46:11;;;;;;;8.80;1.90;;;21.00;93.60;;;;;;5073196;28;20191;-75
2022/01/12 09:48:40;;;;;;;9.90;2.13;;;21.10;93.80;;;;;;5072855;28;20614;-75
2022/01/12 09:51:08;;;;;;;4.30;1.53;;;21.20;93.50;;;;;;5072962;28;20180;-76
2022/01/12 09:53:37;;;;;;;2.57;1.23;;;21.10;93.30;;;;;;5074835;28;20187;-76
2022/01/12 09:56:18;;;;;;;5.43;1.90;;;21.10;92.70;;;;;;5069205;28;20211;-77
2022/01/12 09:58:47;;;;;;;7.53;1.90;;;21.10;93.40;;;;;;5070342;28;20221;-77
2022/01/12 10:01:27;;;;;;;15.17;3.30;;;21.20;93.60;;;;;;5072564;28;20209;-80
2022/01/12 10:04:10;;;;;;;11.33;2.87;;;21.20;94.20;;;;;;5072001;28;20646;-78
2022/01/12 10:06:45;;;;;;;11.67;2.33;;;21.30;94.20;;;;;;5071524;28;20995;-79
2022/01/12 10:09:13;;;;;;;8.33;2.57;;;21.20;93.60;;;;;;5062274;28;20206;-79
2022/01/12 10:11:50;;;;;;;6.53;2.27;;;21.20;94.30;;;;;;5071123;28;20175;-77
2022/01/12 10:14:18;;;;;;;19.87;3.70;;;21.20;94.30;;;;;;5071739;28;20171;-78
2022/01/12 10:16:54;;;;;;;14.23;3.50;;;21.30;94.60;;;;;;5070559;28;20211;-77
2022/01/12 10:19:29;;;;;;;13.80;3.87;;;21.30;94.80;;;;;;5071296;28;20194;-76
2022/01/12 10:22:02;;;;;;;12.50;2.53;;;21.30;94.70;;;;;;5070723;28;20182;-75
2022/01/12 10:24:30;;;;;;;9.53;2.67;;;21.20;94.80;;;;;;5071250;28;20229;-78
2022/01/12 10:26:58;;;;;;;4.80;1.50;;;21.20;94.70;;;;;;5070742;28;20225;-77
2022/01/12 10:29:29;;;;;;;4.17;1.60;;;21.10;94.40;;;;;;5066460;28;20605;-76
2022/01/12 10:32:02;;;;;;;4.53;1.83;;;21.10;94.40;;;;;;5068031;28;20232;-76
2022/01/12 10:34:47;;;;;;;9.37;2.43;;;21.20;94.70;;;;;;5070586;28;20262;-77
2022/01/12 10:37:22;;;;;;;7.33;2.13;;;21.10;94.50;;;;;;5071970;28;20301;-76
2022/01/12 10:39:51;;;;;;;5.10;2.10;;;21.20;94.80;;;;;;5074317;28;20305;-75
2022/01/12 10:42:21;;;;;;;9.97;2.50;;;21.20;94.80;;;;;;5074306;28;20545;-76
2022/01/12 10:44:52;;;;;;;8.97;2.90;;;21.20;94.80;;;;;;5073450;28;20179;-75
2022/01/12 10:47:22;;;;;;;6.10;2.53;;;21.30;95.00;;;;;;5074655;28;20171;-74
2022/01/12 10:49:56;;;;;;;10.93;2.83;;;21.30;95.10;;;;;;5073211;28;20224;-75
2022/01/12 10:52:36;;;;;;;12.53;3.40;;;21.30;95.10;;;;;;5073652;28;20596;-75
2022/01/12 10:55:08;;;;;;;26.77;3.87;;;21.40;95.30;;;;;;5073711;28;20202;-76
2022/01/12 10:57:44;;;;;;;15.77;3.90;;;21.40;95.20;;;;;;5071851;28;20183;-76
2022/01/12 11:00:24;;;;;;;14.10;4.27;;;21.50;95.30;;;;;;5072296;28;20179;-75
2022/01/12 11:02:58;;;;;;;17.47;4.23;;;21.50;95.10;;;;;;5074650;28;20175;-76
2022/01/12 11:05:32;;;;;;;16.90;3.40;;;21.50;95.20;;;;;;5070623;28;20267;-76
2022/01/12 11:07:59;;;;;;;9.87;2.90;;;21.50;95.20;;;;;;5073545;28;20175;-76
2022/01/12 11:10:27;;;;;;;16.63;2.87;;;21.50;95.10;;;;;;5069363;28;20228;-77
2022/01/12 11:12:54;;;;;;;9.83;2.87;;;21.50;95.00;;;;;;5073807;28;20233;-75
2022/01/12 11:15:22;;;;;;;10.03;2.77;;;21.50;95.00;;;;;;5073973;28;20207;-76
2022/01/12 11:17:52;;;;;;;8.77;2.47;;;21.60;94.90;;;;;;5073869;28;20651;-76
2022/01/12 11:20:25;;;;;;;12.67;3.30;;;21.50;95.10;;;;;;5074111;28;20176;-76
2022/01/12 11:23:17;;;;;;;14.90;2.73;;;21.50;94.90;;;;;;5075186;28;20191;-77
2022/01/12 11:25:46;;;;;;;10.97;2.10;;;21.50;94.90;;;;;;5080262;28;20188;-76
2022/01/12 11:28:17;;;;;;;10.43;2.03;;;21.50;94.70;;;;;;5074974;28;20222;-77
2022/01/12 11:30:50;;;;;;;9.10;1.90;;;21.50;94.70;;;;;;5072760;28;20213;-80
2022/01/12 11:33:20;;;;;;;8.00;1.90;;;21.50;94.20;;;;;;5073433;28;20175;-78
2022/01/12 11:35:50;;;;;;;6.17;1.43;;;21.50;94.40;;;;;;5073930;28;20218;-78
2022/01/12 11:38:32;;;;;;;8.43;1.57;;;21.60;94.50;;;;;;5072235;28;20218;-78
2022/01/12 11:41:21;;;;;;;9.77;2.07;;;21.50;94.40;;;;;;5073280;28;20709;-79
2022/01/12 11:44:03;;;;;;;7.43;1.50;;;21.50;94.40;;;;;;5070427;28;20657;-79
2022/01/12 11:46:48;;;;;;;7.77;1.60;;;21.50;94.50;;;;;;5073042;28;20301;-80
2022/01/12 11:49:39;;;;;;;6.07;1.40;;;21.50;94.50;;;;;;5068852;28;20614;-80
2022/01/12 11:52:27;;;;;;;8.70;1.40;;;21.60;94.40;;;;;;5073275;28;20178;-80
2022/01/12 11:55:14;;;;;;;9.00;1.47;;;21.60;94.40;;;;;;5073222;28;20195;-82
2022/01/12 11:57:47;;;;;;;8.17;1.53;;;21.60;94.30;;;;;;5072128;28;20197;-81
2022/01/12 12:00:20;;;;;;;4.63;1.20;;;21.60;94.10;;;;;;5073305;28;20199;-80
2022/01/12 12:02:52;;;;;;;7.90;1.50;;;21.60;94.30;;;;;;5072264;28;20217;-81
2022/01/12 12:05:21;;;;;;;7.37;1.60;;;21.60;94.30;;;;;;5072157;28;20233;-78
2022/01/12 12:07:54;;;;;;;7.10;1.50;;;21.60;94.20;;;;;;5072456;28;20188;-81
2022/01/12 12:10:26;;;;;;;11.17;1.47;;;21.60;93.90;;;;;;5066975;28;20190;-78
2022/01/12 12:12:56;;;;;;;5.07;1.30;;;21.60;94.10;;;;;;5073583;28;20630;-82
2022/01/12 12:15:25;;;;;;;14.47;1.77;;;21.60;94.10;;;;;;5072664;28;20222;-81
2022/01/12 12:17:54;;;;;;;8.07;1.50;;;21.60;93.70;;;;;;5072870;28;20218;-77
2022/01/12 12:20:25;;;;;;;4.60;1.40;;;21.60;93.40;;;;;;5071691;28;20222;-76
2022/01/12 12:22:52;;;;;;;4.17;1.60;;;21.60;93.30;;;;;;5073381;28;20722;-76
2022/01/12 12:25:21;;;;;;;3.90;1.20;;;21.70;93.10;;;;;;5073115;28;20171;-77
2022/01/12 12:27:57;;;;;;;3.87;1.10;;;21.60;92.30;;;;;;5073305;28;20183;-76
2022/01/12 12:30:26;;;;;;;7.60;1.43;;;21.50;91.60;;;;;;5069667;28;20186;-74
2022/01/12 12:33:03;;;;;;;10.50;1.60;;;21.20;91.30;;;;;;5072455;28;20171;-75
2022/01/12 12:35:33;;;;;;;3.57;1.20;;;21.00;91.60;;;;;;5068589;28;20231;-86
2022/01/12 12:38:11;;;;;;;4.33;1.20;;;21.00;92.20;;;;;;5066547;28;20222;-76
2022/01/12 12:40:59;;;;;;;4.87;1.33;;;20.80;91.70;;;;;;5071385;28;20175;-81
2022/01/12 12:43:33;;;;;;;5.10;1.30;;;20.80;91.40;;;;;;5072799;28;20225;-80
2022/01/12 12:46:09;;;;;;;6.17;1.27;;;20.80;91.40;;;;;;5066484;28;20185;-76
2022/01/12 12:48:39;;;;;;;2.93;1.47;;;20.80;91.80;;;;;;5074059;28;20179;-77
2022/01/12 12:51:12;;;;;;;4.90;1.40;;;20.90;92.20;;;;;;5069264;28;20187;-74
2022/01/12 12:53:52;;;;;;;4.10;1.40;;;20.80;92.60;;;;;;5071705;28;20634;-73
2022/01/12 12:56:23;;;;;;;4.93;1.33;;;20.80;93.50;;;;;;5073800;28;20583;-74
2022/01/12 12:58:56;;;;;;;3.83;1.47;;;20.80;93.50;;;;;;5078626;28;20194;-74
2022/01/12 13:01:26;;;;;;;7.30;1.67;;;20.80;93.70;;;;;;5078240;28;20168;-74
2022/01/12 13:03:57;;;;;;;5.30;1.57;;;20.80;94.00;;;;;;5072709;28;20175;-76
2022/01/12 13:06:35;;;;;;;8.07;1.30;;;20.80;94.20;;;;;;5072054;28;20182;-76
2022/01/12 13:09:05;;;;;;;3.53;1.17;;;20.80;94.10;;;;;;5069619;28;20178;-76
2022/01/12 13:11:35;;;;;;;8.00;1.67;;;20.90;94.00;;;;;;5072296;28;20190;-77
2022/01/12 13:14:07;;;;;;;5.40;1.40;;;20.90;94.00;;;;;;5071774;28;20183;-78
2022/01/12 13:16:43;;;;;;;3.50;1.20;;;20.90;94.00;;;;;;5071842;28;20689;-76
2022/01/12 13:19:22;;;;;;;6.07;1.60;;;20.90;94.10;;;;;;5069511;28;20241;-76
2022/01/12 13:21:49;;;;;;;5.33;1.60;;;21.00;94.20;;;;;;5071430;28;20672;-76
2022/01/12 13:24:17;;;;;;;6.00;1.30;;;21.00;94.10;;;;;;5071666;28;20221;-76
2022/01/12 13:26:45;;;;;;;4.40;1.20;;;21.00;94.10;;;;;;5071653;28;20680;-76
2022/01/12 13:29:13;;;;;;;5.17;1.03;;;21.00;94.10;;;;;;5070526;28;20194;-76
2022/01/12 13:31:41;;;;;;;3.53;1.37;;;21.00;94.30;;;;;;5071773;28;20207;-77
2022/01/12 13:34:13;;;;;;;5.03;1.50;;;21.00;94.30;;;;;;5072478;28;20183;-76
2022/01/12 13:36:51;;;;;;;6.03;1.67;;;21.00;94.40;;;;;;5071627;28;20286;-76
2022/01/12 13:39:19;;;;;;;5.03;1.53;;;21.10;94.50;;;;;;5071420;28;20210;-76
2022/01/12 13:41:47;;;;;;;5.97;1.40;;;21.10;94.50;;;;;;5071607;28;20658;-76
2022/01/12 13:44:18;;;;;;;6.83;1.40;;;21.10;94.40;;;;;;5072021;28;20176;-76
2022/01/12 13:47:01;;;;;;;7.10;1.30;;;21.10;94.30;;;;;;5071313;28;20190;-75
2022/01/12 13:49:28;;;;;;;3.57;1.10;;;21.00;94.10;;;;;;5068378;28;20531;-75
2022/01/12 13:52:03;;;;;;;3.50;1.20;;;21.10;94.10;;;;;;5071102;28;20175;-76
2022/01/12 13:54:39;;;;;;;6.83;1.40;;;21.00;94.10;;;;;;5071191;28;20599;-76
2022/01/12 13:57:09;;;;;;;6.53;1.37;;;21.10;94.20;;;;;;5070989;28;20270;-77
2022/01/12 13:59:52;;;;;;;4.77;1.33;;;21.10;93.90;;;;;;5071234;28;20180;-75
2022/01/12 14:02:25;;;;;;;3.63;1.10;;;21.10;93.70;;;;;;5069367;28;20183;-76
2022/01/12 14:05:06;;;;;;;4.70;1.40;;;21.20;93.80;;;;;;5070459;28;20183;-76
2022/01/12 14:07:38;;;;;;;5.00;1.87;;;21.20;93.80;;;;;;5071605;28;20187;-76
2022/01/12 14:10:09;;;;;;;4.30;1.07;;;21.20;93.40;;;;;;5066327;28;20186;-77
2022/01/12 14:12:37;;;;;;;6.03;1.50;;;21.20;93.10;;;;;;5075909;28;20194;-78
2022/01/12 14:15:10;;;;;;;6.90;1.30;;;21.20;93.00;;;;;;5072834;28;20238;-76
2022/01/12 14:17:44;;;;;;;4.57;1.23;;;21.10;93.10;;;;;;5076238;28;20656;-76
2022/01/12 14:20:21;;;;;;;3.80;1.30;;;21.20;93.10;;;;;;5072221;28;20213;-76